createdAt,value
2017-09-28T00:01:22.483Z,91.30
2017-09-28T00:03:50.083Z,91.30
2017-09-28T00:06:17.772Z,91.40
2017-09-28T00:08:46.159Z,91.80
2017-09-28T00:11:13.766Z,91.80
2017-09-28T00:13:41.443Z,91.60
2017-09-28T00:16:09.244Z,91.90
2017-09-28T00:18:37.052Z,91.70
2017-09-28T00:21:04.835Z,91.90
2017-09-28T00:23:32.958Z,92.00
2017-09-28T00:26:01.282Z,92.00
2017-09-28T00:28:29.040Z,92.00
2017-09-28T00:30:56.945Z,92.00
2017-09-28T00:33:24.632Z,91.70
2017-09-28T00:35:52.238Z,91.80
2017-09-28T00:38:19.904Z,91.60
2017-09-28T00:40:47.513Z,91.50
2017-09-28T00:43:15.210Z,91.80
2017-09-28T00:45:43.475Z,91.60
2017-09-28T00:48:11.063Z,91.80
2017-09-28T00:50:38.688Z,92.00
2017-09-28T00:53:06.393Z,92.10
2017-09-28T00:55:34.091Z,92.10
2017-09-28T00:58:01.992Z,92.20
2017-09-28T01:00:29.714Z,91.90
2017-09-28T01:02:57.396Z,91.70
2017-09-28T01:05:25.008Z,92.10
2017-09-28T01:07:52.658Z,91.60
2017-09-28T01:10:20.311Z,91.60
2017-09-28T01:12:47.912Z,91.70
2017-09-28T01:15:15.496Z,91.60
2017-09-28T01:17:43.124Z,92.00
2017-09-28T01:20:11.547Z,91.90
2017-09-28T01:22:39.215Z,91.90
2017-09-28T01:25:06.936Z,91.90
2017-09-28T01:27:34.641Z,91.80
2017-09-28T01:30:02.443Z,91.90
2017-09-28T01:32:30.139Z,91.80
2017-09-28T01:34:57.888Z,91.90
2017-09-28T01:37:26.258Z,92.10
2017-09-28T01:39:53.949Z,92.10
2017-09-28T01:42:21.577Z,92.00
2017-09-28T01:44:49.165Z,92.00
2017-09-28T01:47:16.700Z,92.10
2017-09-28T01:49:44.276Z,92.40
2017-09-28T01:52:12.662Z,92.30
2017-09-28T01:54:40.400Z,92.30
2017-09-28T01:57:08.104Z,92.40
2017-09-28T01:59:35.812Z,92.10
2017-09-28T02:02:03.559Z,92.30
2017-09-28T02:04:31.276Z,92.30
2017-09-28T02:06:58.963Z,92.30
2017-09-28T02:09:26.691Z,92.40
2017-09-28T02:11:54.328Z,92.40
2017-09-28T02:14:22.709Z,92.10
2017-09-28T02:16:50.374Z,92.10
2017-09-28T02:19:18.000Z,91.90
2017-09-28T02:21:45.653Z,92.20
2017-09-28T02:24:13.277Z,92.10
2017-09-28T02:26:41.720Z,92.30
2017-09-28T02:29:09.500Z,92.30
2017-09-28T02:31:37.938Z,92.00
2017-09-28T02:34:05.565Z,92.00
2017-09-28T02:36:33.268Z,92.20
2017-09-28T02:39:00.955Z,92.10
2017-09-28T02:41:28.633Z,92.00
2017-09-28T02:43:56.258Z,92.20
2017-09-28T02:46:23.879Z,92.30
2017-09-28T02:48:51.484Z,92.30
2017-09-28T02:51:19.868Z,92.20
2017-09-28T02:53:47.504Z,92.00
2017-09-28T02:56:15.852Z,92.30
2017-09-28T02:58:43.404Z,92.30
2017-09-28T03:01:11.832Z,92.70
2017-09-28T03:03:39.390Z,92.70
2017-09-28T03:06:07.064Z,92.70
2017-09-28T03:08:35.419Z,92.50
2017-09-28T03:11:03.924Z,92.50
2017-09-28T03:13:31.622Z,92.50
2017-09-28T03:15:59.258Z,92.40
2017-09-28T03:18:28.323Z,92.40
2017-09-28T03:20:55.962Z,92.40
2017-09-28T03:23:23.590Z,92.50
2017-09-28T03:25:51.169Z,92.30
2017-09-28T03:28:18.817Z,92.60
2017-09-28T03:30:46.433Z,92.70
2017-09-28T03:33:14.078Z,92.70
2017-09-28T03:35:41.737Z,92.80
2017-09-28T03:38:09.371Z,92.80
2017-09-28T03:40:37.049Z,93.00
2017-09-28T03:43:04.662Z,93.10
2017-09-28T03:45:32.361Z,93.40
2017-09-28T03:48:00.717Z,93.60
2017-09-28T03:50:29.631Z,93.60
2017-09-28T03:52:57.993Z,93.80
2017-09-28T03:55:26.370Z,93.80
2017-09-28T03:57:54.075Z,93.70
2017-09-28T04:00:21.723Z,93.60
2017-09-28T04:02:49.336Z,93.40
2017-09-28T04:05:16.960Z,93.40
2017-09-28T04:07:44.631Z,93.50
2017-09-28T04:10:12.261Z,93.80
2017-09-28T04:12:39.920Z,93.80
2017-09-28T04:15:07.583Z,93.80
2017-09-28T04:17:35.182Z,93.50
2017-09-28T04:20:03.650Z,93.40
2017-09-28T04:22:32.093Z,93.40
2017-09-28T04:24:59.736Z,93.40
2017-09-28T04:27:27.483Z,93.40
2017-09-28T04:29:55.095Z,93.50
2017-09-28T04:32:22.758Z,93.50
2017-09-28T04:34:50.395Z,93.60
2017-09-28T04:37:18.058Z,93.40
2017-09-28T04:39:45.610Z,93.40
2017-09-28T04:42:13.271Z,93.60
2017-09-28T04:44:40.825Z,93.40
2017-09-28T04:47:08.509Z,93.50
2017-09-28T04:49:36.076Z,93.60
2017-09-28T04:52:03.696Z,93.70
2017-09-28T04:54:31.326Z,93.90
2017-09-28T04:56:59.436Z,93.90
2017-09-28T04:59:27.024Z,93.90
2017-09-28T05:01:55.415Z,93.90
2017-09-28T05:04:22.956Z,93.80
2017-09-28T05:06:50.502Z,93.90
2017-09-28T05:09:18.119Z,94.00
2017-09-28T05:11:45.782Z,94.00
2017-09-28T05:14:13.399Z,93.90
2017-09-28T05:16:41.016Z,94.00
2017-09-28T05:19:08.651Z,93.90
2017-09-28T05:21:36.287Z,93.70
2017-09-28T05:24:04.041Z,93.70
2017-09-28T05:26:31.837Z,93.40
2017-09-28T05:28:59.463Z,93.30
2017-09-28T05:31:27.941Z,93.00
2017-09-28T05:33:55.547Z,93.30
2017-09-28T05:36:23.142Z,93.20
2017-09-28T05:38:50.751Z,93.20
2017-09-28T05:41:18.542Z,93.00
2017-09-28T05:43:46.195Z,92.70
2017-09-28T05:46:13.808Z,92.60
2017-09-28T05:48:41.478Z,92.30
2017-09-28T05:51:09.100Z,92.10
2017-09-28T05:53:36.798Z,92.10
2017-09-28T05:56:04.515Z,92.10
2017-09-28T05:58:32.237Z,91.90
2017-09-28T06:00:59.887Z,91.80
2017-09-28T06:03:27.598Z,91.90
2017-09-28T06:05:55.983Z,91.80
2017-09-28T06:08:23.770Z,91.80
2017-09-28T06:10:51.376Z,91.90
2017-09-28T06:13:19.063Z,91.60
2017-09-28T06:15:46.604Z,91.50
2017-09-28T06:18:14.179Z,91.10
2017-09-28T06:20:41.718Z,91.20
2017-09-28T06:23:09.342Z,91.20
2017-09-28T06:25:36.968Z,91.10
2017-09-28T06:28:04.658Z,91.00
2017-09-28T06:30:32.393Z,91.00
2017-09-28T06:33:00.061Z,91.00
2017-09-28T06:35:27.687Z,90.40
2017-09-28T06:37:55.345Z,90.30
2017-09-28T06:40:22.935Z,90.40
2017-09-28T06:42:50.557Z,90.60
2017-09-28T06:45:18.175Z,90.70
2017-09-28T06:47:45.799Z,90.40
2017-09-28T06:50:13.490Z,90.20
2017-09-28T06:52:41.071Z,90.10
2017-09-28T06:55:08.671Z,90.10
2017-09-28T06:57:36.320Z,89.60
2017-09-28T07:00:03.961Z,89.10
2017-09-28T07:02:31.619Z,89.50
2017-09-28T07:04:59.260Z,89.90
2017-09-28T07:07:26.882Z,90.30
2017-09-28T07:09:54.470Z,90.20
2017-09-28T07:12:22.083Z,90.00
2017-09-28T07:14:49.753Z,89.50
2017-09-28T07:17:17.343Z,89.80
2017-09-28T07:19:45.019Z,88.80
2017-09-28T07:22:12.574Z,88.80
2017-09-28T07:24:40.196Z,88.80
2017-09-28T07:27:07.793Z,88.10
2017-09-28T07:29:35.384Z,88.50
2017-09-28T07:32:02.981Z,88.10
2017-09-28T07:34:30.686Z,88.30
2017-09-28T07:36:58.278Z,88.00
2017-09-28T07:39:25.884Z,87.20
2017-09-28T07:41:53.428Z,86.20
2017-09-28T07:44:21.171Z,85.60
2017-09-28T07:46:48.709Z,85.60
2017-09-28T07:49:16.347Z,85.10
2017-09-28T07:51:43.883Z,84.70
2017-09-28T07:54:12.224Z,84.50
2017-09-28T07:56:40.532Z,84.10
2017-09-28T07:59:08.175Z,84.00
2017-09-28T08:01:35.747Z,83.80
2017-09-28T08:04:03.441Z,83.50
2017-09-28T08:06:31.088Z,83.80
2017-09-28T08:08:59.620Z,82.60
2017-09-28T08:11:27.240Z,82.50
2017-09-28T08:13:54.893Z,82.00
2017-09-28T08:16:22.491Z,80.90
2017-09-28T08:18:50.918Z,82.30
2017-09-28T08:21:18.545Z,82.20
2017-09-28T08:23:46.213Z,81.90
2017-09-28T08:26:13.756Z,81.30
2017-09-28T08:28:41.342Z,80.20
2017-09-28T08:31:09.663Z,74.30
2017-09-28T08:33:37.218Z,74.20
2017-09-28T08:36:04.906Z,74.60
2017-09-28T08:38:32.459Z,74.80
2017-09-28T08:41:00.115Z,66.80
2017-09-28T08:43:27.668Z,66.60
2017-09-28T08:45:55.240Z,72.10
2017-09-28T08:48:22.776Z,71.40
2017-09-28T08:50:50.352Z,62.70
2017-09-28T08:53:17.883Z,66.60
2017-09-28T08:55:45.467Z,59.20
2017-09-28T08:58:13.016Z,60.20
2017-09-28T09:00:41.352Z,56.60
2017-09-28T09:03:09.676Z,56.50
2017-09-28T09:05:37.261Z,56.40
2017-09-28T09:08:04.878Z,56.70
2017-09-28T09:10:32.566Z,52.90
2017-09-28T09:13:00.138Z,52.50
2017-09-28T09:15:27.755Z,51.80
2017-09-28T09:17:55.296Z,50.00
2017-09-28T09:20:22.894Z,50.20
2017-09-28T09:22:50.441Z,50.00
2017-09-28T09:25:18.036Z,50.30
2017-09-28T09:27:45.603Z,50.00
2017-09-28T09:30:13.223Z,49.30
2017-09-28T09:32:40.828Z,50.50
2017-09-28T09:35:08.503Z,49.10
2017-09-28T09:37:36.060Z,52.60
2017-09-28T09:40:03.651Z,51.70
2017-09-28T09:42:31.224Z,48.10
2017-09-28T09:44:59.105Z,46.90
2017-09-28T09:47:26.648Z,51.20
2017-09-28T09:49:54.188Z,54.00
2017-09-28T09:52:21.888Z,53.10
2017-09-28T09:54:49.558Z,54.90
2017-09-28T09:57:17.166Z,52.70
2017-09-28T09:59:44.750Z,52.60
2017-09-28T10:02:12.424Z,49.60
2017-09-28T10:04:40.052Z,49.30
2017-09-28T10:07:10.013Z,47.90
2017-09-28T10:09:41.186Z,47.80
2017-09-28T10:12:10.996Z,48.70
2017-09-28T10:14:42.089Z,52.20
2017-09-28T10:17:09.720Z,55.20
2017-09-28T10:19:37.400Z,51.00
2017-09-28T10:22:05.034Z,50.70
2017-09-28T10:24:32.718Z,48.80
2017-09-28T10:27:00.321Z,47.60
2017-09-28T10:29:27.867Z,48.60
2017-09-28T10:31:55.440Z,48.30
2017-09-28T10:34:22.982Z,47.70
2017-09-28T10:36:50.556Z,48.50
2017-09-28T10:39:18.099Z,48.80
2017-09-28T10:41:45.667Z,48.10
2017-09-28T10:44:13.209Z,48.10
2017-09-28T10:46:40.771Z,49.30
2017-09-28T10:49:08.303Z,48.30
2017-09-28T10:51:35.900Z,48.40
2017-09-28T10:54:03.512Z,48.20
2017-09-28T10:56:31.127Z,48.30
2017-09-28T10:58:59.446Z,48.00
2017-09-28T11:01:27.075Z,48.00
2017-09-28T11:03:54.608Z,47.10
2017-09-28T11:06:22.574Z,47.90
2017-09-28T11:08:50.100Z,48.30
2017-09-28T11:11:17.651Z,47.70
2017-09-28T11:13:45.233Z,49.10
2017-09-28T11:16:12.781Z,49.00
2017-09-28T11:18:40.351Z,48.70
2017-09-28T11:21:07.907Z,48.40
2017-09-28T11:23:36.248Z,49.30
2017-09-28T11:26:03.834Z,49.30
2017-09-28T11:28:31.382Z,48.20
2017-09-28T11:30:58.949Z,48.20
2017-09-28T11:33:26.506Z,48.10
2017-09-28T11:35:54.072Z,49.50
2017-09-28T11:38:21.611Z,50.70
2017-09-28T11:40:49.180Z,48.60
2017-09-28T11:43:17.479Z,51.50
2017-09-28T11:45:45.052Z,50.80
2017-09-28T11:48:12.584Z,55.00
2017-09-28T11:50:40.166Z,53.60
2017-09-28T11:53:07.726Z,51.00
2017-09-28T11:55:36.096Z,48.50
2017-09-28T11:58:03.652Z,48.50
2017-09-28T12:00:31.226Z,48.70
2017-09-28T12:02:58.814Z,48.90
2017-09-28T12:05:26.353Z,55.70
2017-09-28T12:07:53.919Z,54.50
2017-09-28T12:10:22.219Z,53.90
2017-09-28T12:12:49.890Z,54.40
2017-09-28T12:15:17.436Z,50.30
2017-09-28T12:17:45.010Z,47.10
2017-09-28T12:20:12.547Z,51.50
2017-09-28T12:22:40.122Z,47.50
2017-09-28T12:25:08.032Z,49.70
2017-09-28T12:27:35.643Z,50.60
2017-09-28T12:30:03.198Z,49.30
2017-09-28T12:32:30.792Z,52.30
2017-09-28T12:34:59.097Z,53.10
2017-09-28T12:37:26.689Z,53.00
2017-09-28T12:39:54.224Z,45.80
2017-09-28T12:42:21.768Z,46.30
2017-09-28T12:44:49.347Z,47.00
2017-09-28T12:47:17.673Z,44.70
2017-09-28T12:49:45.240Z,44.70
2017-09-28T12:52:12.797Z,44.50
2017-09-28T12:54:41.135Z,43.40
2017-09-28T12:57:08.672Z,43.30
2017-09-28T12:59:36.260Z,42.10
2017-09-28T13:02:03.824Z,42.90
2017-09-28T13:04:31.446Z,42.60
2017-09-28T13:06:58.999Z,43.70
2017-09-28T13:09:26.576Z,42.40
2017-09-28T13:11:54.125Z,43.40
2017-09-28T13:14:21.700Z,41.90
2017-09-28T13:16:49.272Z,42.30
2017-09-28T13:19:17.611Z,52.10
2017-09-28T13:21:45.148Z,52.00
2017-09-28T13:24:12.717Z,43.40
2017-09-28T13:26:41.021Z,51.50
2017-09-28T13:29:08.620Z,51.40
2017-09-28T13:31:36.168Z,49.10
2017-09-28T13:34:04.546Z,51.20
2017-09-28T13:36:32.876Z,55.90
2017-09-28T13:39:00.432Z,55.90
2017-09-28T13:41:28.040Z,57.20
2017-09-28T13:43:55.577Z,57.20
2017-09-28T13:46:23.148Z,57.10
2017-09-28T13:48:50.688Z,56.50
2017-09-28T13:51:18.259Z,57.10
2017-09-28T13:53:45.800Z,57.10
2017-09-28T13:56:13.422Z,57.80
2017-09-28T13:58:40.965Z,58.40
2017-09-28T14:01:08.553Z,59.30
2017-09-28T14:03:36.860Z,59.00
2017-09-28T14:06:04.477Z,59.60
2017-09-28T14:08:32.057Z,56.60
2017-09-28T14:10:59.651Z,58.70
2017-09-28T14:13:27.960Z,60.70
2017-09-28T14:15:55.536Z,60.50
2017-09-28T14:18:23.074Z,60.50
2017-09-28T14:20:51.013Z,61.20
2017-09-28T14:23:18.592Z,60.30
2017-09-28T14:25:46.179Z,60.20
2017-09-28T14:28:13.720Z,61.50
2017-09-28T14:30:41.259Z,62.40
2017-09-28T14:33:08.836Z,63.30
2017-09-28T14:35:36.376Z,64.70
2017-09-28T14:38:04.744Z,65.20
2017-09-28T14:40:32.290Z,65.10
2017-09-28T14:42:59.877Z,65.20
2017-09-28T14:45:28.225Z,64.30
2017-09-28T14:47:55.791Z,64.30
2017-09-28T14:50:23.325Z,63.50
2017-09-28T14:52:50.896Z,63.60
2017-09-28T14:55:19.198Z,62.90
2017-09-28T14:57:46.776Z,62.70
2017-09-28T15:00:14.303Z,63.10
2017-09-28T15:02:41.876Z,64.00
2017-09-28T15:05:09.402Z,64.20
2017-09-28T15:07:36.992Z,64.20
2017-09-28T15:10:04.540Z,64.40
2017-09-28T15:12:32.163Z,66.30
2017-09-28T15:15:00.512Z,66.00
2017-09-28T15:17:28.865Z,65.80
2017-09-28T15:19:56.400Z,65.70
2017-09-28T15:22:23.974Z,67.40
2017-09-28T15:24:52.283Z,66.80
2017-09-28T15:27:19.867Z,66.80
2017-09-28T15:29:47.395Z,67.00
2017-09-28T15:32:14.929Z,66.60
2017-09-28T15:34:42.652Z,67.30
2017-09-28T15:37:10.272Z,67.20
2017-09-28T15:39:37.844Z,67.30
2017-09-28T15:42:05.440Z,67.70
2017-09-28T15:44:33.026Z,67.60
2017-09-28T15:47:00.719Z,68.00
2017-09-28T15:49:28.322Z,69.30
2017-09-28T15:51:56.685Z,69.20
2017-09-28T15:54:24.236Z,69.10
2017-09-28T15:56:51.772Z,68.40
2017-09-28T15:59:20.108Z,68.90
2017-09-28T16:01:47.645Z,68.90
2017-09-28T16:04:15.212Z,69.40
2017-09-28T16:06:43.516Z,70.60
2017-09-28T16:09:11.101Z,70.50
2017-09-28T16:11:39.368Z,70.90
2017-09-28T16:14:06.959Z,69.30
2017-09-28T16:16:34.542Z,70.60
2017-09-28T16:19:02.156Z,69.60
2017-09-28T16:21:29.789Z,70.30
2017-09-28T16:23:57.381Z,71.50
2017-09-28T16:26:25.694Z,72.00
2017-09-28T16:28:53.272Z,72.10
2017-09-28T16:31:20.812Z,72.10
2017-09-28T16:33:48.399Z,72.10
2017-09-28T16:36:15.932Z,72.00
2017-09-28T16:38:43.463Z,71.90
2017-09-28T16:41:11.139Z,70.50
2017-09-28T16:43:38.694Z,71.20
2017-09-28T16:46:07.094Z,71.20
2017-09-28T16:48:35.071Z,71.20
2017-09-28T16:51:02.753Z,72.20
2017-09-28T16:53:30.618Z,72.60
2017-09-28T16:55:58.246Z,72.50
2017-09-28T16:58:26.617Z,73.50
2017-09-28T17:00:54.244Z,73.50
2017-09-28T17:03:21.787Z,74.30
2017-09-28T17:05:49.360Z,74.00
2017-09-28T17:08:17.660Z,73.80
2017-09-28T17:10:45.329Z,73.70
2017-09-28T17:13:12.862Z,74.00
2017-09-28T17:15:40.493Z,74.10
2017-09-28T17:18:08.041Z,74.10
2017-09-28T17:20:35.603Z,74.30
2017-09-28T17:23:03.287Z,74.80
2017-09-28T17:25:30.837Z,74.50
2017-09-28T17:27:58.420Z,74.30
2017-09-28T17:30:25.964Z,73.60
2017-09-28T17:32:53.537Z,73.70
2017-09-28T17:35:21.084Z,74.30
2017-09-28T17:37:48.648Z,75.30
2017-09-28T17:40:16.187Z,74.80
2017-09-28T17:42:43.776Z,74.60
2017-09-28T17:45:12.144Z,74.60
2017-09-28T17:47:39.757Z,75.50
2017-09-28T17:50:08.153Z,75.40
2017-09-28T17:52:35.710Z,75.30
2017-09-28T17:55:03.295Z,75.40
2017-09-28T17:57:30.837Z,75.60
2017-09-28T17:59:58.399Z,75.80
2017-09-28T18:02:26.036Z,75.80
2017-09-28T18:04:54.920Z,75.80
2017-09-28T18:07:22.571Z,75.80
2017-09-28T18:09:53.942Z,76.00
2017-09-28T18:12:23.732Z,76.30
2017-09-28T18:14:53.556Z,75.90
2017-09-28T18:17:21.092Z,75.90
2017-09-28T18:19:48.708Z,76.70
2017-09-28T18:22:16.697Z,76.50
2017-09-28T18:24:45.339Z,75.90
2017-09-28T18:27:15.986Z,76.10
2017-09-28T18:29:45.552Z,76.10
2017-09-28T18:32:13.948Z,77.70
2017-09-28T18:34:42.505Z,77.70
2017-09-28T18:37:10.134Z,78.30
2017-09-28T18:39:37.699Z,77.70
2017-09-28T18:42:05.281Z,77.80
2017-09-28T18:44:32.833Z,77.00
2017-09-28T18:47:00.412Z,76.90
2017-09-28T18:49:28.720Z,77.70
2017-09-28T18:51:59.324Z,77.70
2017-09-28T18:54:26.859Z,78.10
2017-09-28T18:56:54.420Z,77.60
2017-09-28T18:59:21.959Z,77.80
2017-09-28T19:01:49.756Z,78.10
2017-09-28T19:04:17.292Z,79.20
2017-09-28T19:06:44.903Z,79.80
2017-09-28T19:09:12.491Z,79.70
2017-09-28T19:11:40.434Z,80.30
2017-09-28T19:14:09.496Z,81.30
2017-09-28T19:16:37.632Z,80.60
2017-09-28T19:19:06.454Z,80.40
2017-09-28T19:21:34.060Z,79.70
2017-09-28T19:24:01.635Z,78.70
2017-09-28T19:26:29.246Z,79.00
2017-09-28T19:28:56.813Z,79.10
2017-09-28T19:31:24.367Z,78.90
2017-09-28T19:33:52.028Z,79.80
2017-09-28T19:36:19.636Z,80.10
2017-09-28T19:38:47.200Z,80.50
2017-09-28T19:41:14.810Z,81.20
2017-09-28T19:43:42.483Z,81.70
2017-09-28T19:46:10.024Z,81.90
2017-09-28T19:48:37.563Z,81.30
2017-09-28T19:51:05.148Z,80.60
2017-09-28T19:53:34.234Z,79.80
2017-09-28T19:56:01.842Z,79.80
2017-09-28T19:58:29.509Z,79.80
2017-09-28T20:00:57.048Z,79.50
2017-09-28T20:03:24.699Z,79.70
2017-09-28T20:05:52.236Z,79.90
2017-09-28T20:10:57.495Z,80.00
2017-09-28T20:13:25.109Z,80.20
2017-09-28T20:15:52.650Z,80.20
2017-09-28T20:18:20.282Z,80.50
2017-09-28T20:20:47.815Z,80.20
2017-09-28T20:23:15.356Z,80.70
2017-09-28T20:25:42.929Z,80.40
2017-09-28T20:28:10.490Z,80.60
2017-09-28T20:30:38.065Z,80.40
2017-09-28T20:33:06.359Z,81.10
2017-09-28T20:35:33.956Z,80.40
2017-09-28T20:38:01.543Z,81.00
2017-09-28T20:40:29.119Z,82.20
2017-09-28T20:42:57.606Z,82.50
2017-09-28T20:45:25.724Z,83.40
2017-09-28T20:47:53.431Z,83.00
2017-09-28T20:50:20.964Z,83.10
2017-09-28T20:52:50.054Z,82.80
2017-09-28T20:55:17.588Z,82.80
2017-09-28T20:57:45.160Z,82.20
2017-09-28T21:00:13.458Z,81.20
2017-09-28T21:02:41.024Z,81.20
2017-09-28T21:05:08.563Z,81.20
2017-09-28T21:07:36.168Z,81.80
2017-09-28T21:10:04.464Z,83.30
2017-09-28T21:12:32.045Z,83.30
2017-09-28T21:14:59.651Z,83.90
2017-09-28T21:17:28.012Z,82.50
2017-09-28T21:19:55.549Z,82.40
2017-09-28T21:22:23.189Z,82.20
2017-09-28T21:24:50.745Z,82.20
2017-09-28T21:27:18.323Z,81.80
2017-09-28T21:29:45.855Z,81.70
2017-09-28T21:32:13.433Z,81.60
2017-09-28T21:34:41.014Z,81.80
2017-09-28T21:37:08.551Z,82.10
2017-09-28T21:39:36.976Z,83.40
2017-09-28T21:42:04.515Z,83.40
2017-09-28T21:44:32.108Z,83.40
2017-09-28T21:47:00.428Z,82.90
2017-09-28T21:49:28.023Z,82.90
2017-09-28T21:51:55.630Z,82.70
2017-09-28T21:54:24.218Z,82.90
2017-09-28T21:56:52.583Z,83.10
2017-09-28T21:59:20.184Z,83.00
2017-09-28T22:01:47.728Z,83.30
2017-09-28T22:04:15.322Z,83.60
2017-09-28T22:06:43.637Z,84.30
2017-09-28T22:09:11.200Z,84.30
2017-09-28T22:11:40.253Z,83.00
2017-09-28T22:14:07.869Z,83.70
2017-09-28T22:16:35.434Z,83.60
2017-09-28T22:19:03.016Z,83.20
2017-09-28T22:21:30.570Z,83.20
2017-09-28T22:23:58.197Z,83.50
2017-09-28T22:26:25.737Z,84.00
2017-09-28T22:28:53.310Z,83.90
2017-09-28T22:31:20.939Z,83.80
2017-09-28T22:33:48.511Z,83.50
2017-09-28T22:36:16.048Z,84.70
2017-09-28T22:38:43.632Z,85.00
2017-09-28T22:41:11.180Z,85.40
2017-09-28T22:43:38.794Z,86.20
2017-09-28T22:46:06.341Z,85.90
2017-09-28T22:48:33.875Z,86.00
2017-09-28T22:51:01.539Z,85.20
2017-09-28T22:53:29.850Z,84.50
2017-09-28T22:55:57.420Z,84.40
2017-09-28T22:58:24.976Z,83.90
2017-09-28T23:00:52.559Z,84.00
2017-09-28T23:03:20.147Z,84.40
2017-09-28T23:05:47.712Z,84.50
2017-09-28T23:08:15.252Z,85.00
2017-09-28T23:10:42.828Z,84.40
2017-09-28T23:13:12.128Z,84.40
2017-09-28T23:15:39.693Z,84.30
2017-09-28T23:18:07.318Z,85.30
2017-09-28T23:20:34.958Z,85.20
2017-09-28T23:23:02.579Z,84.90
2017-09-28T23:25:31.011Z,85.80
2017-09-28T23:27:58.580Z,85.80
2017-09-28T23:30:26.187Z,85.90
2017-09-28T23:32:53.818Z,85.90
2017-09-28T23:35:21.435Z,85.40
2017-09-28T23:37:49.127Z,85.30
2017-09-28T23:40:16.738Z,85.40
2017-09-28T23:42:45.113Z,86.00
2017-09-28T23:45:12.793Z,85.90
2017-09-28T23:47:40.432Z,85.70
2017-09-28T23:50:07.979Z,85.30
2017-09-28T23:52:35.653Z,85.20
2017-09-28T23:55:04.046Z,84.90
2017-09-28T23:57:31.675Z,84.80
2017-09-28T23:59:59.223Z,85.20
